sensor_id;sensor_type;location;lat;lon;timestamp;P1;durP1;ratioP1;P2;durP2;ratioP2
6197;SDS011;3132;42.622;23.328;2022-07-09T00:02:12;11.97;;;10.80;;
6197;SDS011;3132;42.622;23.328;2022-07-09T00:04:37;11.67;;;10.87;;
6197;SDS011;3132;42.622;23.328;2022-07-09T00:07:03;12.00;;;10.93;;
6197;SDS011;3132;42.622;23.328;2022-07-09T00:09:29;11.20;;;10.50;;
6197;SDS011;3132;42.622;23.328;2022-07-09T00:11:54;11.90;;;11.00;;
6197;SDS011;3132;42.622;23.328;2022-07-09T00:14:20;12.00;;;10.90;;
6197;SDS011;3132;42.622;23.328;2022-07-09T00:16:45;12.50;;;11.60;;
6197;SDS011;3132;42.622;23.328;2022-07-09T00:19:11;11.27;;;10.50;;
6197;SDS011;3132;42.622;23.328;2022-07-09T00:21:36;12.10;;;11.20;;
6197;SDS011;3132;42.622;23.328;2022-07-09T00:24:02;12.73;;;11.63;;
6197;SDS011;3132;42.622;23.328;2022-07-09T00:26:27;12.60;;;11.60;;
6197;SDS011;3132;42.622;23.328;2022-07-09T00:28:52;12.00;;;11.17;;
6197;SDS011;3132;42.622;23.328;2022-07-09T00:31:18;13.23;;;12.33;;
6197;SDS011;3132;42.622;23.328;2022-07-09T00:33:43;13.47;;;12.17;;
6197;SDS011;3132;42.622;23.328;2022-07-09T00:36:08;12.73;;;11.83;;
6197;SDS011;3132;42.622;23.328;2022-07-09T00:38:34;11.83;;;11.03;;
6197;SDS011;3132;42.622;23.328;2022-07-09T00:40:59;12.57;;;11.77;;
6197;SDS011;3132;42.622;23.328;2022-07-09T00:43:26;12.10;;;11.30;;
6197;SDS011;3132;42.622;23.328;2022-07-09T00:45:51;11.03;;;10.13;;
6197;SDS011;3132;42.622;23.328;2022-07-09T00:48:17;12.07;;;11.17;;
6197;SDS011;3132;42.622;23.328;2022-07-09T00:50:44;11.60;;;10.80;;
6197;SDS011;3132;42.622;23.328;2022-07-09T00:53:12;13.03;;;11.93;;
6197;SDS011;3132;42.622;23.328;2022-07-09T00:55:40;13.30;;;12.37;;
6197;SDS011;3132;42.622;23.328;2022-07-09T00:58:05;13.23;;;12.13;;
6197;SDS011;3132;42.622;23.328;2022-07-09T01:00:33;12.53;;;11.63;;
6197;SDS011;3132;42.622;23.328;2022-07-09T01:02:59;13.10;;;12.03;;
6197;SDS011;3132;42.622;23.328;2022-07-09T01:05:25;11.93;;;11.13;;
6197;SDS011;3132;42.622;23.328;2022-07-09T01:07:50;11.37;;;10.67;;
6197;SDS011;3132;42.622;23.328;2022-07-09T01:10:16;11.03;;;10.33;;
6197;SDS011;3132;42.622;23.328;2022-07-09T01:12:42;11.83;;;10.70;;
6197;SDS011;3132;42.622;23.328;2022-07-09T01:15:09;10.47;;;9.77;;
6197;SDS011;3132;42.622;23.328;2022-07-09T01:17:39;9.70;;;9.10;;
6197;SDS011;3132;42.622;23.328;2022-07-09T01:20:05;10.23;;;9.63;;
6197;SDS011;3132;42.622;23.328;2022-07-09T01:22:32;9.47;;;8.97;;
6197;SDS011;3132;42.622;23.328;2022-07-09T01:24:57;10.03;;;9.43;;
6197;SDS011;3132;42.622;23.328;2022-07-09T01:27:25;11.43;;;10.73;;
6197;SDS011;3132;42.622;23.328;2022-07-09T01:29:50;10.37;;;9.57;;
6197;SDS011;3132;42.622;23.328;2022-07-09T01:32:16;11.23;;;10.53;;
6197;SDS011;3132;42.622;23.328;2022-07-09T01:34:42;11.00;;;10.27;;
6197;SDS011;3132;42.622;23.328;2022-07-09T01:37:07;11.07;;;10.37;;
6197;SDS011;3132;42.622;23.328;2022-07-09T01:39:32;10.17;;;9.57;;
6197;SDS011;3132;42.622;23.328;2022-07-09T01:41:58;11.57;;;10.77;;
6197;SDS011;3132;42.622;23.328;2022-07-09T01:44:23;11.23;;;10.53;;
6197;SDS011;3132;42.622;23.328;2022-07-09T01:46:49;11.63;;;10.83;;
6197;SDS011;3132;42.622;23.328;2022-07-09T01:49:14;11.27;;;10.57;;
6197;SDS011;3132;42.622;23.328;2022-07-09T01:51:40;11.03;;;10.43;;
6197;SDS011;3132;42.622;23.328;2022-07-09T01:54:05;11.30;;;10.70;;
6197;SDS011;3132;42.622;23.328;2022-07-09T01:56:30;9.90;;;9.20;;
6197;SDS011;3132;42.622;23.328;2022-07-09T01:58:56;10.60;;;10.00;;
6197;SDS011;3132;42.622;23.328;2022-07-09T02:01:22;11.83;;;11.03;;
6197;SDS011;3132;42.622;23.328;2022-07-09T02:03:47;11.67;;;10.87;;
6197;SDS011;3132;42.622;23.328;2022-07-09T02:06:12;12.00;;;11.20;;
6197;SDS011;3132;42.622;23.328;2022-07-09T02:08:38;11.77;;;10.77;;
6197;SDS011;3132;42.622;23.328;2022-07-09T02:11:04;10.73;;;10.13;;
6197;SDS011;3132;42.622;23.328;2022-07-09T02:13:30;12.57;;;11.47;;
6197;SDS011;3132;42.622;23.328;2022-07-09T02:15:56;10.33;;;9.63;;
6197;SDS011;3132;42.622;23.328;2022-07-09T02:18:21;11.63;;;10.87;;
6197;SDS011;3132;42.622;23.328;2022-07-09T02:20:46;11.17;;;10.50;;
6197;SDS011;3132;42.622;23.328;2022-07-09T02:23:12;10.87;;;10.17;;
6197;SDS011;3132;42.622;23.328;2022-07-09T02:25:37;11.00;;;10.30;;
6197;SDS011;3132;42.622;23.328;2022-07-09T02:28:03;10.17;;;9.57;;
6197;SDS011;3132;42.622;23.328;2022-07-09T02:30:29;10.63;;;9.97;;
6197;SDS011;3132;42.622;23.328;2022-07-09T02:32:55;11.33;;;10.53;;
6197;SDS011;3132;42.622;23.328;2022-07-09T02:35:20;10.93;;;10.33;;
6197;SDS011;3132;42.622;23.328;2022-07-09T02:37:46;10.57;;;9.90;;
6197;SDS011;3132;42.622;23.328;2022-07-09T02:40:11;10.30;;;9.60;;
6197;SDS011;3132;42.622;23.328;2022-07-09T02:42:39;9.60;;;9.07;;
6197;SDS011;3132;42.622;23.328;2022-07-09T02:45:05;11.10;;;10.40;;
6197;SDS011;3132;42.622;23.328;2022-07-09T02:47:30;10.17;;;9.57;;
6197;SDS011;3132;42.622;23.328;2022-07-09T02:49:56;10.63;;;9.93;;
6197;SDS011;3132;42.622;23.328;2022-07-09T02:52:21;9.63;;;9.07;;
6197;SDS011;3132;42.622;23.328;2022-07-09T02:54:47;10.20;;;9.60;;
6197;SDS011;3132;42.622;23.328;2022-07-09T02:57:12;10.23;;;9.63;;
6197;SDS011;3132;42.622;23.328;2022-07-09T02:59:38;11.00;;;10.20;;
6197;SDS011;3132;42.622;23.328;2022-07-09T03:02:03;9.60;;;9.10;;
6197;SDS011;3132;42.622;23.328;2022-07-09T03:04:29;10.37;;;9.77;;
6197;SDS011;3132;42.622;23.328;2022-07-09T03:06:54;11.10;;;10.23;;
6197;SDS011;3132;42.622;23.328;2022-07-09T03:09:20;10.30;;;9.70;;
6197;SDS011;3132;42.622;23.328;2022-07-09T03:11:45;9.77;;;9.27;;
6197;SDS011;3132;42.622;23.328;2022-07-09T03:14:11;10.27;;;9.67;;
6197;SDS011;3132;42.622;23.328;2022-07-09T03:16:36;10.73;;;10.13;;
6197;SDS011;3132;42.622;23.328;2022-07-09T03:19:01;10.57;;;9.87;;
6197;SDS011;3132;42.622;23.328;2022-07-09T03:21:27;10.20;;;9.60;;
6197;SDS011;3132;42.622;23.328;2022-07-09T03:23:52;10.17;;;9.57;;
6197;SDS011;3132;42.622;23.328;2022-07-09T03:28:59;9.73;;;9.13;;
6197;SDS011;3132;42.622;23.328;2022-07-09T03:31:24;10.90;;;9.87;;
6197;SDS011;3132;42.622;23.328;2022-07-09T03:33:50;10.63;;;10.03;;
6197;SDS011;3132;42.622;23.328;2022-07-09T03:36:18;10.57;;;10.03;;
6197;SDS011;3132;42.622;23.328;2022-07-09T03:38:44;11.23;;;10.43;;
6197;SDS011;3132;42.622;23.328;2022-07-09T03:41:09;9.60;;;9.10;;
6197;SDS011;3132;42.622;23.328;2022-07-09T03:43:34;10.73;;;10.07;;
6197;SDS011;3132;42.622;23.328;2022-07-09T03:46:00;9.80;;;9.20;;
6197;SDS011;3132;42.622;23.328;2022-07-09T03:48:25;10.00;;;9.50;;
6197;SDS011;3132;42.622;23.328;2022-07-09T03:50:50;10.73;;;10.13;;
6197;SDS011;3132;42.622;23.328;2022-07-09T03:53:16;10.80;;;10.20;;
6197;SDS011;3132;42.622;23.328;2022-07-09T03:55:41;11.67;;;10.97;;
6197;SDS011;3132;42.622;23.328;2022-07-09T03:58:07;11.00;;;10.30;;
6197;SDS011;3132;42.622;23.328;2022-07-09T04:00:33;11.80;;;10.90;;
6197;SDS011;3132;42.622;23.328;2022-07-09T04:02:58;10.80;;;10.20;;
6197;SDS011;3132;42.622;23.328;2022-07-09T04:05:23;12.50;;;11.40;;
6197;SDS011;3132;42.622;23.328;2022-07-09T04:07:49;11.33;;;10.53;;
6197;SDS011;3132;42.622;23.328;2022-07-09T04:10:15;10.90;;;9.80;;
6197;SDS011;3132;42.622;23.328;2022-07-09T04:12:40;10.87;;;10.17;;
6197;SDS011;3132;42.622;23.328;2022-07-09T04:15:05;11.87;;;11.07;;
6197;SDS011;3132;42.622;23.328;2022-07-09T04:17:31;9.77;;;9.17;;
6197;SDS011;3132;42.622;23.328;2022-07-09T04:19:56;10.47;;;9.87;;
6197;SDS011;3132;42.622;23.328;2022-07-09T04:22:22;10.20;;;9.50;;
6197;SDS011;3132;42.622;23.328;2022-07-09T04:24:48;10.80;;;10.17;;
6197;SDS011;3132;42.622;23.328;2022-07-09T04:27:13;9.83;;;9.23;;
6197;SDS011;3132;42.622;23.328;2022-07-09T04:29:38;10.50;;;9.90;;
6197;SDS011;3132;42.622;23.328;2022-07-09T04:32:04;10.87;;;10.17;;
6197;SDS011;3132;42.622;23.328;2022-07-09T04:34:29;10.67;;;10.03;;
6197;SDS011;3132;42.622;23.328;2022-07-09T04:36:55;10.80;;;10.17;;
6197;SDS011;3132;42.622;23.328;2022-07-09T04:39:20;10.17;;;9.47;;
6197;SDS011;3132;42.622;23.328;2022-07-09T04:41:49;10.77;;;10.07;;
6197;SDS011;3132;42.622;23.328;2022-07-09T04:44:14;10.03;;;9.43;;
6197;SDS011;3132;42.622;23.328;2022-07-09T04:46:40;10.27;;;9.57;;
6197;SDS011;3132;42.622;23.328;2022-07-09T04:49:06;10.00;;;9.40;;
6197;SDS011;3132;42.622;23.328;2022-07-09T04:51:32;11.03;;;10.37;;
6197;SDS011;3132;42.622;23.328;2022-07-09T04:53:57;10.33;;;9.77;;
6197;SDS011;3132;42.622;23.328;2022-07-09T04:56:22;11.43;;;10.73;;
6197;SDS011;3132;42.622;23.328;2022-07-09T04:58:48;9.57;;;9.07;;
6197;SDS011;3132;42.622;23.328;2022-07-09T05:01:19;10.47;;;9.80;;
6197;SDS011;3132;42.622;23.328;2022-07-09T05:03:45;10.60;;;9.90;;
6197;SDS011;3132;42.622;23.328;2022-07-09T05:06:12;10.53;;;9.83;;
6197;SDS011;3132;42.622;23.328;2022-07-09T05:08:41;9.63;;;9.03;;
6197;SDS011;3132;42.622;23.328;2022-07-09T05:11:07;10.60;;;9.97;;
6197;SDS011;3132;42.622;23.328;2022-07-09T05:13:33;10.47;;;9.87;;
6197;SDS011;3132;42.622;23.328;2022-07-09T05:15:58;10.53;;;9.83;;
6197;SDS011;3132;42.622;23.328;2022-07-09T05:18:23;11.57;;;10.80;;
6197;SDS011;3132;42.622;23.328;2022-07-09T05:20:49;11.13;;;10.53;;
6197;SDS011;3132;42.622;23.328;2022-07-09T05:23:14;10.63;;;10.03;;
6197;SDS011;3132;42.622;23.328;2022-07-09T05:25:40;12.43;;;11.73;;
6197;SDS011;3132;42.622;23.328;2022-07-09T05:28:05;11.33;;;10.43;;
6197;SDS011;3132;42.622;23.328;2022-07-09T05:30:31;10.57;;;9.97;;
6197;SDS011;3132;42.622;23.328;2022-07-09T05:33:02;9.90;;;9.30;;
6197;SDS011;3132;42.622;23.328;2022-07-09T05:35:30;10.03;;;9.40;;
6197;SDS011;3132;42.622;23.328;2022-07-09T05:37:56;10.27;;;9.57;;
6197;SDS011;3132;42.622;23.328;2022-07-09T05:40:21;10.90;;;10.20;;
6197;SDS011;3132;42.622;23.328;2022-07-09T05:42:47;11.07;;;10.37;;
6197;SDS011;3132;42.622;23.328;2022-07-09T05:45:12;10.60;;;10.00;;
6197;SDS011;3132;42.622;23.328;2022-07-09T05:47:38;10.57;;;9.97;;
6197;SDS011;3132;42.622;23.328;2022-07-09T05:50:03;9.93;;;9.43;;
6197;SDS011;3132;42.622;23.328;2022-07-09T05:52:29;10.43;;;9.83;;
6197;SDS011;3132;42.622;23.328;2022-07-09T05:54:54;9.87;;;9.37;;
6197;SDS011;3132;42.622;23.328;2022-07-09T05:57:20;9.43;;;8.83;;
6197;SDS011;3132;42.622;23.328;2022-07-09T05:59:45;11.27;;;10.50;;
6197;SDS011;3132;42.622;23.328;2022-07-09T06:02:11;10.33;;;9.73;;
6197;SDS011;3132;42.622;23.328;2022-07-09T06:04:36;8.27;;;7.77;;
6197;SDS011;3132;42.622;23.328;2022-07-09T06:07:02;9.37;;;8.87;;
6197;SDS011;3132;42.622;23.328;2022-07-09T06:09:27;9.13;;;8.63;;
6197;SDS011;3132;42.622;23.328;2022-07-09T06:11:53;9.90;;;9.27;;
6197;SDS011;3132;42.622;23.328;2022-07-09T06:14:18;9.70;;;9.20;;
6197;SDS011;3132;42.622;23.328;2022-07-09T06:16:44;9.10;;;8.60;;
6197;SDS011;3132;42.622;23.328;2022-07-09T06:19:12;9.03;;;8.53;;
6197;SDS011;3132;42.622;23.328;2022-07-09T06:21:41;9.60;;;9.10;;
6197;SDS011;3132;42.622;23.328;2022-07-09T06:24:07;10.50;;;9.63;;
6197;SDS011;3132;42.622;23.328;2022-07-09T06:26:32;8.90;;;8.40;;
6197;SDS011;3132;42.622;23.328;2022-07-09T06:28:59;8.47;;;8.07;;
6197;SDS011;3132;42.622;23.328;2022-07-09T06:31:25;9.07;;;8.47;;
6197;SDS011;3132;42.622;23.328;2022-07-09T06:33:50;9.53;;;9.03;;
6197;SDS011;3132;42.622;23.328;2022-07-09T06:36:16;9.07;;;8.47;;
6197;SDS011;3132;42.622;23.328;2022-07-09T06:38:41;9.63;;;9.03;;
6197;SDS011;3132;42.622;23.328;2022-07-09T06:41:25;9.17;;;8.70;;
6197;SDS011;3132;42.622;23.328;2022-07-09T06:43:50;9.20;;;8.63;;
6197;SDS011;3132;42.622;23.328;2022-07-09T06:46:16;8.77;;;8.37;;
6197;SDS011;3132;42.622;23.328;2022-07-09T06:48:41;9.43;;;8.83;;
6197;SDS011;3132;42.622;23.328;2022-07-09T06:51:06;10.53;;;9.93;;
6197;SDS011;3132;42.622;23.328;2022-07-09T06:53:32;10.60;;;10.00;;
6197;SDS011;3132;42.622;23.328;2022-07-09T06:55:57;10.10;;;9.47;;
6197;SDS011;3132;42.622;23.328;2022-07-09T06:58:22;10.07;;;9.57;;
6197;SDS011;3132;42.622;23.328;2022-07-09T07:00:48;10.30;;;9.70;;
6197;SDS011;3132;42.622;23.328;2022-07-09T07:03:14;10.40;;;9.90;;
6197;SDS011;3132;42.622;23.328;2022-07-09T07:05:40;10.23;;;9.53;;
6197;SDS011;3132;42.622;23.328;2022-07-09T07:08:05;10.20;;;9.63;;
6197;SDS011;3132;42.622;23.328;2022-07-09T07:10:31;10.77;;;10.17;;
6197;SDS011;3132;42.622;23.328;2022-07-09T07:12:56;10.80;;;10.20;;
6197;SDS011;3132;42.622;23.328;2022-07-09T07:15:21;9.53;;;9.00;;
6197;SDS011;3132;42.622;23.328;2022-07-09T07:17:47;10.40;;;9.80;;
6197;SDS011;3132;42.622;23.328;2022-07-09T07:20:13;10.03;;;9.53;;
6197;SDS011;3132;42.622;23.328;2022-07-09T07:22:39;10.60;;;9.90;;
6197;SDS011;3132;42.622;23.328;2022-07-09T07:25:04;9.43;;;8.93;;
6197;SDS011;3132;42.622;23.328;2022-07-09T07:27:30;10.20;;;9.60;;
6197;SDS011;3132;42.622;23.328;2022-07-09T07:29:56;10.50;;;9.80;;
6197;SDS011;3132;42.622;23.328;2022-07-09T07:32:21;9.50;;;9.00;;
6197;SDS011;3132;42.622;23.328;2022-07-09T07:34:46;10.37;;;9.83;;
6197;SDS011;3132;42.622;23.328;2022-07-09T07:37:12;9.53;;;9.03;;
6197;SDS011;3132;42.622;23.328;2022-07-09T07:39:37;10.00;;;9.40;;
6197;SDS011;3132;42.622;23.328;2022-07-09T07:42:03;9.53;;;9.03;;
6197;SDS011;3132;42.622;23.328;2022-07-09T07:44:28;9.23;;;8.63;;
6197;SDS011;3132;42.622;23.328;2022-07-09T07:46:54;9.47;;;8.97;;
6197;SDS011;3132;42.622;23.328;2022-07-09T07:49:19;9.27;;;8.87;;
6197;SDS011;3132;42.622;23.328;2022-07-09T07:51:45;10.50;;;9.90;;
6197;SDS011;3132;42.622;23.328;2022-07-09T07:54:10;10.10;;;9.60;;
6197;SDS011;3132;42.622;23.328;2022-07-09T07:56:36;9.63;;;9.13;;
6197;SDS011;3132;42.622;23.328;2022-07-09T07:59:03;9.47;;;8.77;;
6197;SDS011;3132;42.622;23.328;2022-07-09T08:01:29;9.93;;;9.27;;
6197;SDS011;3132;42.622;23.328;2022-07-09T08:03:54;9.13;;;8.73;;
6197;SDS011;3132;42.622;23.328;2022-07-09T08:06:20;10.37;;;9.77;;
6197;SDS011;3132;42.622;23.328;2022-07-09T08:08:47;9.13;;;8.63;;
6197;SDS011;3132;42.622;23.328;2022-07-09T08:11:13;9.30;;;8.80;;
6197;SDS011;3132;42.622;23.328;2022-07-09T08:13:39;10.60;;;9.90;;
6197;SDS011;3132;42.622;23.328;2022-07-09T08:16:05;10.20;;;9.60;;
6197;SDS011;3132;42.622;23.328;2022-07-09T08:18:31;10.90;;;10.20;;
6197;SDS011;3132;42.622;23.328;2022-07-09T08:20:57;10.60;;;10.00;;
6197;SDS011;3132;42.622;23.328;2022-07-09T08:23:22;9.83;;;9.20;;
6197;SDS011;3132;42.622;23.328;2022-07-09T08:25:47;12.47;;;11.53;;
6197;SDS011;3132;42.622;23.328;2022-07-09T08:28:14;9.20;;;8.57;;
6197;SDS011;3132;42.622;23.328;2022-07-09T08:30:40;10.30;;;9.70;;
6197;SDS011;3132;42.622;23.328;2022-07-09T08:33:05;10.70;;;10.07;;
6197;SDS011;3132;42.622;23.328;2022-07-09T08:35:31;11.50;;;10.60;;
6197;SDS011;3132;42.622;23.328;2022-07-09T08:37:56;10.60;;;9.83;;
6197;SDS011;3132;42.622;23.328;2022-07-09T08:40:22;10.43;;;9.77;;
6197;SDS011;3132;42.622;23.328;2022-07-09T08:42:50;9.73;;;9.13;;
6197;SDS011;3132;42.622;23.328;2022-07-09T08:45:18;9.57;;;9.03;;
6197;SDS011;3132;42.622;23.328;2022-07-09T08:47:46;10.27;;;9.67;;
6197;SDS011;3132;42.622;23.328;2022-07-09T08:50:12;10.43;;;9.83;;
6197;SDS011;3132;42.622;23.328;2022-07-09T08:52:39;10.63;;;9.93;;
6197;SDS011;3132;42.622;23.328;2022-07-09T08:55:07;10.60;;;9.90;;
6197;SDS011;3132;42.622;23.328;2022-07-09T08:57:33;11.13;;;10.30;;
6197;SDS011;3132;42.622;23.328;2022-07-09T08:59:59;11.03;;;10.17;;
6197;SDS011;3132;42.622;23.328;2022-07-09T09:02:33;11.73;;;11.03;;
6197;SDS011;3132;42.622;23.328;2022-07-09T09:05:14;10.80;;;10.10;;
6197;SDS011;3132;42.622;23.328;2022-07-09T09:07:40;10.70;;;10.10;;
6197;SDS011;3132;42.622;23.328;2022-07-09T09:10:06;9.97;;;9.37;;
6197;SDS011;3132;42.622;23.328;2022-07-09T09:12:32;11.03;;;10.17;;
6197;SDS011;3132;42.622;23.328;2022-07-09T09:14:57;12.07;;;10.90;;
6197;SDS011;3132;42.622;23.328;2022-07-09T09:17:22;11.33;;;10.33;;
6197;SDS011;3132;42.622;23.328;2022-07-09T09:19:48;11.33;;;10.40;;
6197;SDS011;3132;42.622;23.328;2022-07-09T09:22:17;9.73;;;9.13;;
6197;SDS011;3132;42.622;23.328;2022-07-09T09:24:43;10.80;;;9.90;;
6197;SDS011;3132;42.622;23.328;2022-07-09T09:27:08;11.70;;;10.90;;
6197;SDS011;3132;42.622;23.328;2022-07-09T09:29:34;11.10;;;10.33;;
6197;SDS011;3132;42.622;23.328;2022-07-09T09:32:10;11.13;;;10.13;;
6197;SDS011;3132;42.622;23.328;2022-07-09T09:34:36;11.20;;;10.50;;
6197;SDS011;3132;42.622;23.328;2022-07-09T09:37:02;11.13;;;10.43;;
6197;SDS011;3132;42.622;23.328;2022-07-09T09:39:28;12.87;;;11.97;;
6197;SDS011;3132;42.622;23.328;2022-07-09T09:41:58;12.87;;;11.77;;
6197;SDS011;3132;42.622;23.328;2022-07-09T09:44:28;12.43;;;11.27;;
6197;SDS011;3132;42.622;23.328;2022-07-09T09:46:56;13.00;;;12.07;;
6197;SDS011;3132;42.622;23.328;2022-07-09T09:49:23;12.87;;;11.70;;
6197;SDS011;3132;42.622;23.328;2022-07-09T09:54:35;13.47;;;12.37;;
6197;SDS011;3132;42.622;23.328;2022-07-09T09:57:08;12.57;;;11.67;;
6197;SDS011;3132;42.622;23.328;2022-07-09T09:59:36;12.20;;;11.33;;
6197;SDS011;3132;42.622;23.328;2022-07-09T10:02:04;12.80;;;11.93;;
6197;SDS011;3132;42.622;23.328;2022-07-09T10:04:37;11.83;;;11.03;;
6197;SDS011;3132;42.622;23.328;2022-07-09T10:07:06;13.73;;;12.83;;
6197;SDS011;3132;42.622;23.328;2022-07-09T10:09:33;13.90;;;12.90;;
6197;SDS011;3132;42.622;23.328;2022-07-09T10:11:58;13.67;;;12.77;;
6197;SDS011;3132;42.622;23.328;2022-07-09T10:16:50;15.50;;;14.40;;
6197;SDS011;3132;42.622;23.328;2022-07-09T10:19:28;15.10;;;14.00;;
6197;SDS011;3132;42.622;23.328;2022-07-09T10:21:58;13.97;;;12.93;;
6197;SDS011;3132;42.622;23.328;2022-07-09T10:26:51;11.47;;;10.53;;
6197;SDS011;3132;42.622;23.328;2022-07-09T10:29:17;11.47;;;10.70;;
6197;SDS011;3132;42.622;23.328;2022-07-09T10:31:43;11.97;;;11.13;;
6197;SDS011;3132;42.622;23.328;2022-07-09T10:34:10;12.43;;;10.87;;
6197;SDS011;3132;42.622;23.328;2022-07-09T10:36:57;11.40;;;10.60;;
6197;SDS011;3132;42.622;23.328;2022-07-09T10:39:23;10.27;;;9.57;;
6197;SDS011;3132;42.622;23.328;2022-07-09T10:44:47;11.37;;;10.60;;
6197;SDS011;3132;42.622;23.328;2022-07-09T10:47:16;11.57;;;10.77;;
6197;SDS011;3132;42.622;23.328;2022-07-09T10:49:42;12.03;;;11.23;;
6197;SDS011;3132;42.622;23.328;2022-07-09T10:52:08;11.90;;;11.10;;
6197;SDS011;3132;42.622;23.328;2022-07-09T10:54:35;12.40;;;11.57;;
6197;SDS011;3132;42.622;23.328;2022-07-09T10:57:11;11.20;;;10.40;;
6197;SDS011;3132;42.622;23.328;2022-07-09T10:59:38;13.90;;;12.73;;
6197;SDS011;3132;42.622;23.328;2022-07-09T11:02:03;11.37;;;10.73;;
6197;SDS011;3132;42.622;23.328;2022-07-09T11:04:30;10.23;;;9.63;;
6197;SDS011;3132;42.622;23.328;2022-07-09T11:06:57;9.60;;;9.10;;
6197;SDS011;3132;42.622;23.328;2022-07-09T11:09:25;9.40;;;8.90;;
6197;SDS011;3132;42.622;23.328;2022-07-09T11:11:55;9.83;;;9.33;;
6197;SDS011;3132;42.622;23.328;2022-07-09T11:14:21;10.50;;;9.90;;
6197;SDS011;3132;42.622;23.328;2022-07-09T11:16:53;10.77;;;10.17;;
6197;SDS011;3132;42.622;23.328;2022-07-09T11:19:20;9.83;;;9.33;;
6197;SDS011;3132;42.622;23.328;2022-07-09T11:21:46;10.93;;;10.27;;
6197;SDS011;3132;42.622;23.328;2022-07-09T11:24:13;10.00;;;9.60;;
6197;SDS011;3132;42.622;23.328;2022-07-09T11:26:39;10.00;;;9.50;;
6197;SDS011;3132;42.622;23.328;2022-07-09T11:29:06;9.73;;;9.13;;
6197;SDS011;3132;42.622;23.328;2022-07-09T11:31:33;10.27;;;9.67;;
6197;SDS011;3132;42.622;23.328;2022-07-09T11:33:59;11.27;;;10.37;;
6197;SDS011;3132;42.622;23.328;2022-07-09T11:36:38;9.40;;;8.90;;
6197;SDS011;3132;42.622;23.328;2022-07-09T11:39:05;9.57;;;9.07;;
6197;SDS011;3132;42.622;23.328;2022-07-09T11:41:40;8.93;;;8.43;;
6197;SDS011;3132;42.622;23.328;2022-07-09T11:44:07;9.67;;;8.97;;
6197;SDS011;3132;42.622;23.328;2022-07-09T11:46:32;9.93;;;9.33;;
6197;SDS011;3132;42.622;23.328;2022-07-09T11:48:58;10.07;;;9.47;;
6197;SDS011;3132;42.622;23.328;2022-07-09T11:51:33;10.37;;;9.87;;
6197;SDS011;3132;42.622;23.328;2022-07-09T11:53:59;9.80;;;9.07;;
6197;SDS011;3132;42.622;23.328;2022-07-09T11:56:25;8.90;;;8.30;;
6197;SDS011;3132;42.622;23.328;2022-07-09T11:58:52;8.10;;;7.80;;
6197;SDS011;3132;42.622;23.328;2022-07-09T12:01:18;9.00;;;8.53;;
6197;SDS011;3132;42.622;23.328;2022-07-09T12:03:47;9.40;;;8.80;;
6197;SDS011;3132;42.622;23.328;2022-07-09T12:06:13;7.83;;;7.47;;
6197;SDS011;3132;42.622;23.328;2022-07-09T12:08:39;8.73;;;8.33;;
6197;SDS011;3132;42.622;23.328;2022-07-09T12:11:05;8.07;;;7.67;;
6197;SDS011;3132;42.622;23.328;2022-07-09T12:13:30;8.90;;;8.50;;
6197;SDS011;3132;42.622;23.328;2022-07-09T12:15:56;8.50;;;8.10;;
6197;SDS011;3132;42.622;23.328;2022-07-09T12:18:22;8.63;;;8.23;;
6197;SDS011;3132;42.622;23.328;2022-07-09T12:20:47;8.73;;;8.23;;
6197;SDS011;3132;42.622;23.328;2022-07-09T12:23:12;8.87;;;8.47;;
6197;SDS011;3132;42.622;23.328;2022-07-09T12:25:38;8.90;;;8.50;;
6197;SDS011;3132;42.622;23.328;2022-07-09T12:28:04;9.33;;;8.83;;
6197;SDS011;3132;42.622;23.328;2022-07-09T12:30:30;8.90;;;8.50;;
6197;SDS011;3132;42.622;23.328;2022-07-09T12:32:55;8.47;;;8.07;;
6197;SDS011;3132;42.622;23.328;2022-07-09T12:35:23;8.53;;;8.03;;
6197;SDS011;3132;42.622;23.328;2022-07-09T12:37:49;7.80;;;7.47;;
6197;SDS011;3132;42.622;23.328;2022-07-09T12:40:15;8.77;;;8.37;;
6197;SDS011;3132;42.622;23.328;2022-07-09T12:42:40;9.17;;;8.77;;
6197;SDS011;3132;42.622;23.328;2022-07-09T12:45:06;8.40;;;8.00;;
6197;SDS011;3132;42.622;23.328;2022-07-09T12:47:32;8.17;;;7.77;;
6197;SDS011;3132;42.622;23.328;2022-07-09T12:49:58;8.93;;;8.27;;
6197;SDS011;3132;42.622;23.328;2022-07-09T12:52:23;9.27;;;8.77;;
6197;SDS011;3132;42.622;23.328;2022-07-09T12:54:49;8.33;;;7.93;;
6197;SDS011;3132;42.622;23.328;2022-07-09T12:57:14;8.70;;;8.30;;
6197;SDS011;3132;42.622;23.328;2022-07-09T12:59:40;8.67;;;8.27;;
6197;SDS011;3132;42.622;23.328;2022-07-09T13:02:06;8.33;;;7.93;;
6197;SDS011;3132;42.622;23.328;2022-07-09T13:04:32;8.80;;;8.30;;
6197;SDS011;3132;42.622;23.328;2022-07-09T13:06:58;7.83;;;7.43;;
6197;SDS011;3132;42.622;23.328;2022-07-09T13:09:24;7.97;;;7.47;;
6197;SDS011;3132;42.622;23.328;2022-07-09T13:11:49;8.40;;;8.00;;
6197;SDS011;3132;42.622;23.328;2022-07-09T13:14:14;8.40;;;7.93;;
6197;SDS011;3132;42.622;23.328;2022-07-09T13:16:40;8.40;;;8.00;;
6197;SDS011;3132;42.622;23.328;2022-07-09T13:19:06;9.50;;;9.00;;
6197;SDS011;3132;42.622;23.328;2022-07-09T13:21:31;8.73;;;8.13;;
6197;SDS011;3132;42.622;23.328;2022-07-09T13:23:56;9.10;;;8.70;;
6197;SDS011;3132;42.622;23.328;2022-07-09T13:26:22;8.00;;;7.60;;
6197;SDS011;3132;42.622;23.328;2022-07-09T13:28:48;9.37;;;8.93;;
6197;SDS011;3132;42.622;23.328;2022-07-09T13:31:13;8.27;;;7.97;;
6197;SDS011;3132;42.622;23.328;2022-07-09T13:33:39;9.20;;;8.80;;
6197;SDS011;3132;42.622;23.328;2022-07-09T13:36:04;9.20;;;8.70;;
6197;SDS011;3132;42.622;23.328;2022-07-09T13:38:31;10.00;;;9.33;;
6197;SDS011;3132;42.622;23.328;2022-07-09T13:40:57;9.20;;;8.70;;
6197;SDS011;3132;42.622;23.328;2022-07-09T13:43:23;11.77;;;11.00;;
6197;SDS011;3132;42.622;23.328;2022-07-09T13:45:54;8.03;;;7.63;;
6197;SDS011;3132;42.622;23.328;2022-07-09T13:48:21;9.60;;;9.10;;
6197;SDS011;3132;42.622;23.328;2022-07-09T13:50:47;9.00;;;8.60;;
6197;SDS011;3132;42.622;23.328;2022-07-09T13:53:12;9.27;;;8.63;;
6197;SDS011;3132;42.622;23.328;2022-07-09T13:55:37;9.73;;;9.13;;
6197;SDS011;3132;42.622;23.328;2022-07-09T13:58:03;9.50;;;9.00;;
6197;SDS011;3132;42.622;23.328;2022-07-09T14:00:28;9.13;;;8.73;;
6197;SDS011;3132;42.622;23.328;2022-07-09T14:02:54;9.67;;;9.17;;
6197;SDS011;3132;42.622;23.328;2022-07-09T14:05:19;8.90;;;8.50;;
6197;SDS011;3132;42.622;23.328;2022-07-09T14:07:45;9.13;;;8.63;;
6197;SDS011;3132;42.622;23.328;2022-07-09T14:10:11;9.27;;;8.77;;
6197;SDS011;3132;42.622;23.328;2022-07-09T14:12:37;9.00;;;8.20;;
6197;SDS011;3132;42.622;23.328;2022-07-09T14:15:02;9.40;;;8.80;;
6197;SDS011;3132;42.622;23.328;2022-07-09T14:17:28;9.20;;;8.60;;
6197;SDS011;3132;42.622;23.328;2022-07-09T14:19:54;9.30;;;8.73;;
6197;SDS011;3132;42.622;23.328;2022-07-09T14:22:19;9.23;;;8.63;;
6197;SDS011;3132;42.622;23.328;2022-07-09T14:24:44;8.47;;;8.07;;
6197;SDS011;3132;42.622;23.328;2022-07-09T14:27:10;8.63;;;8.20;;
6197;SDS011;3132;42.622;23.328;2022-07-09T14:29:37;8.40;;;7.93;;
6197;SDS011;3132;42.622;23.328;2022-07-09T14:32:02;9.37;;;8.73;;
6197;SDS011;3132;42.622;23.328;2022-07-09T14:34:28;8.43;;;8.07;;
6197;SDS011;3132;42.622;23.328;2022-07-09T14:36:53;8.70;;;8.30;;
6197;SDS011;3132;42.622;23.328;2022-07-09T14:39:20;8.73;;;8.33;;
6197;SDS011;3132;42.622;23.328;2022-07-09T14:41:46;8.70;;;8.30;;
6197;SDS011;3132;42.622;23.328;2022-07-09T14:44:12;9.00;;;8.30;;
6197;SDS011;3132;42.622;23.328;2022-07-09T14:46:38;9.50;;;9.07;;
6197;SDS011;3132;42.622;23.328;2022-07-09T14:49:04;9.30;;;8.90;;
6197;SDS011;3132;42.622;23.328;2022-07-09T14:51:29;9.07;;;8.57;;
6197;SDS011;3132;42.622;23.328;2022-07-09T14:53:55;8.43;;;7.83;;
6197;SDS011;3132;42.622;23.328;2022-07-09T14:56:21;10.13;;;9.60;;